^^
Your Local Weather - Clay, NY Station Historical Data
Daily Summary for April 7, 2017 Units:  English    Metric   Both
« Previous Day
Next Day »
Daily Weekly Monthly Yearly Custom
  High: Low: Average:
Temperature: 40.4 °F 32.4 °F 35.1 °F
Dew Point: 38.5 °F 27.2 °F 32.1 °F
Humidity: 94% 69% 89%
Wind Speed: 7.0mph 1.0mph 3.8mph
Wind Gust: 11.0mph - -
Wind- - WNW
Pressure: 29.69 in 29.08 in -
Precipitation: 0.40 in    
Historical Graphs
 
 
Tabular Data for April 7, 2017
Time Temperature Dew Point Pressure Wind Wind Speed Wind Gust Humidity Rainfall Rate (Hourly) solar
00:04 40.4 °F 38.5 °F 29.08 in WSW 2.0 mph 5.0 mph 93% 0.00 in 0 W/m2
00:10 40.4 °F 38.5 °F 29.08 in West 2.0 mph 3.0 mph 93% 0.00 in 0 W/m2
00:16 40.4 °F 38.5 °F 29.08 in WSW 2.0 mph 5.0 mph 93% 0.00 in 0 W/m2
00:22 40.4 °F 38.5 °F 29.09 in SSW 2.0 mph 2.0 mph 93% 0.06 in 0 W/m2
00:28 40.4 °F 38.5 °F 29.09 in WSW 3.0 mph 7.0 mph 93% 0.06 in 0 W/m2
00:34 40.3 °F 38.4 °F 29.09 in WSW 3.0 mph 5.0 mph 93% 0.06 in 0 W/m2
00:40 40.1 °F 38.2 °F 29.09 in West 4.0 mph 8.0 mph 93% 0.05 in 0 W/m2
00:46 39.7 °F 37.8 °F 29.09 in WSW 4.0 mph 8.0 mph 93% 0.05 in 0 W/m2
00:52 39.4 °F 37.3 °F 29.10 in SW 5.0 mph 10.0 mph 92% 0.08 in 0 W/m2
00:58 39.3 °F 37.2 °F 29.11 in West 5.0 mph 10.0 mph 92% 0.07 in 0 W/m2
01:04 39.3 °F 37.2 °F 29.11 in West 5.0 mph 11.0 mph 92% 0.07 in 0 W/m2
01:10 39.1 °F 37.0 °F 29.11 in WNW 5.0 mph 5.0 mph 92% 0.08 in 0 W/m2
01:16 39.0 °F 36.9 °F 29.11 in SW 6.0 mph 6.0 mph 92% 0.05 in 0 W/m2
01:22 38.8 °F 36.4 °F 29.12 in SW 4.0 mph 6.0 mph 91% 0.04 in 0 W/m2
01:28 38.5 °F 36.1 °F 29.13 in WSW 4.0 mph 6.0 mph 91% 0.06 in 0 W/m2
01:34 38.1 °F 35.7 °F 29.13 in SW 5.0 mph 7.0 mph 91% 0.06 in 0 W/m2
01:40 37.6 °F 35.2 °F 29.13 in SW 5.0 mph 6.0 mph 91% 0.06 in 0 W/m2
01:46 36.9 °F 34.5 °F 29.14 in SW 5.0 mph 6.0 mph 91% 0.06 in 0 W/m2
01:52 36.0 °F 33.4 °F 29.14 in WNW 5.0 mph 5.0 mph 90% 0.06 in 0 W/m2
01:58 35.3 °F 32.7 °F 29.14 in WSW 4.0 mph 5.0 mph 90% 0.06 in 0 W/m2
02:04 35.0 °F 32.6 °F 29.14 in WSW 5.0 mph 6.0 mph 91% 0.04 in 0 W/m2
02:10 34.7 °F 32.3 °F 29.14 in West 6.0 mph 6.0 mph 91% 0.00 in 0 W/m2
02:16 34.4 °F 32.0 °F 29.14 in West 5.0 mph 6.0 mph 91% 0.00 in 0 W/m2
02:22 34.1 °F 31.7 °F 29.14 in WSW 5.0 mph 5.0 mph 91% 0.00 in 0 W/m2
02:28 33.9 °F 31.6 °F 29.14 in WSW 5.0 mph 5.0 mph 91% 0.00 in 0 W/m2
02:34 33.7 °F 31.4 °F 29.14 in WSW 4.0 mph 5.0 mph 91% 0.00 in 0 W/m2
02:40 33.6 °F 31.3 °F 29.15 in SSW 4.0 mph 4.0 mph 91% 0.00 in 0 W/m2
02:46 33.6 °F 31.5 °F 29.15 in SW 4.0 mph 11.0 mph 92% 0.00 in 0 W/m2
02:52 33.5 °F 31.4 °F 29.15 in WSW 5.0 mph 5.0 mph 92% 0.00 in 0 W/m2
02:58 33.5 °F 31.4 °F 29.16 in WSW 4.0 mph 6.0 mph 92% 0.00 in 0 W/m2
03:04 33.5 °F 31.4 °F 29.16 in WSW 3.0 mph 9.0 mph 92% 0.00 in 0 W/m2
03:10 33.4 °F 31.3 °F 29.16 in West 3.0 mph 3.0 mph 92% 0.00 in 0 W/m2
03:16 33.3 °F 31.2 °F 29.16 in WSW 4.0 mph 6.0 mph 92% 0.00 in 0 W/m2
03:22 33.2 °F 31.1 °F 29.16 in WSW 4.0 mph 5.0 mph 92% 0.00 in 0 W/m2
03:28 33.1 °F 31.0 °F 29.16 in WSW 3.0 mph 5.0 mph 92% 0.00 in 0 W/m2
03:34 33.0 °F 30.9 °F 29.16 in SW 3.0 mph 4.0 mph 92% 0.00 in 0 W/m2
03:40 32.9 °F 30.8 °F 29.17 in WSW 3.0 mph 3.0 mph 92% 0.00 in 0 W/m2
03:46 32.8 °F 30.7 °F 29.17 in WSW 2.0 mph 5.0 mph 92% 0.00 in 0 W/m2
03:52 32.8 °F 30.7 °F 29.17 in SW 2.0 mph 3.0 mph 92% 0.00 in 0 W/m2
03:58 32.8 °F 30.7 °F 29.17 in West 3.0 mph 3.0 mph 92% 0.00 in 0 W/m2
04:04 32.8 °F 30.7 °F 29.17 in SW 3.0 mph 3.0 mph 92% 0.00 in 0 W/m2
04:10 32.7 °F 30.6 °F 29.17 in SSW 2.0 mph 2.0 mph 92% 0.00 in 0 W/m2
04:16 32.6 °F 30.5 °F 29.17 in SSW 3.0 mph 4.0 mph 92% 0.00 in 0 W/m2
04:22 32.5 °F 30.7 °F 29.18 in WSW 3.0 mph 5.0 mph 93% 0.00 in 0 W/m2
04:28 32.5 °F 30.7 °F 29.18 in SW 3.0 mph 6.0 mph 93% 0.00 in 0 W/m2
04:34 32.4 °F 30.6 °F 29.18 in SW 3.0 mph 3.0 mph 93% 0.00 in 0 W/m2
04:40 32.4 °F 30.6 °F 29.18 in SW 2.0 mph 2.0 mph 93% 0.00 in 0 W/m2
04:46 32.4 °F 30.6 °F 29.18 in West 2.0 mph 2.0 mph 93% 0.00 in 0 W/m2
04:52 32.4 °F 30.6 °F 29.18 in WSW 2.0 mph 3.0 mph 93% 0.00 in 0 W/m2
04:58 32.5 °F 30.7 °F 29.19 in WSW 3.0 mph 3.0 mph 93% 0.00 in 0 W/m2
05:06 32.5 °F 30.7 °F 29.19 in SW 2.0 mph 4.0 mph 93% 0.00 in 0 W/m2
05:12 32.6 °F 30.8 °F 29.19 in West 3.0 mph 3.0 mph 93% 0.00 in 0 W/m2
05:18 32.7 °F 30.9 °F 29.19 in West 2.0 mph 4.0 mph 93% 0.00 in 0 W/m2
05:24 32.7 °F 30.9 °F 29.19 in West 2.0 mph 5.0 mph 93% 0.00 in 0 W/m2
05:30 32.7 °F 30.9 °F 29.19 in WSW 2.0 mph 2.0 mph 93% 0.00 in 0 W/m2
05:36 32.7 °F 30.9 °F 29.19 in West 2.0 mph 3.0 mph 93% 0.00 in 0 W/m2
05:42 32.7 °F 30.9 °F 29.19 in WSW 2.0 mph 2.0 mph 93% 0.00 in 0 W/m2
05:48 32.7 °F 30.9 °F 29.19 in WSW 2.0 mph 5.0 mph 93% 0.00 in 0 W/m2
05:54 32.7 °F 30.9 °F 29.19 in WSW 2.0 mph 4.0 mph 93% 0.00 in 0 W/m2
06:00 32.7 °F 30.9 °F 29.19 in SW 2.0 mph 3.0 mph 93% 0.00 in 0 W/m2
06:06 32.7 °F 30.9 °F 29.20 in WSW 3.0 mph 3.0 mph 93% 0.00 in 0 W/m2
06:12 32.7 °F 30.9 °F 29.20 in WSW 3.0 mph 3.0 mph 93% 0.00 in 0 W/m2
06:18 32.8 °F 31.0 °F 29.21 in WSW 3.0 mph 3.0 mph 93% 0.00 in 0 W/m2
06:24 32.9 °F 31.1 °F 29.21 in WSW 3.0 mph 5.0 mph 93% 0.00 in 0 W/m2
06:30 33.0 °F 31.2 °F 29.21 in West 2.0 mph 2.0 mph 93% 0.00 in 0 W/m2
06:36 33.0 °F 31.2 °F 29.21 in WSW 2.0 mph 4.0 mph 93% 0.00 in 0 W/m2
06:42 33.1 °F 31.3 °F 29.21 in WSW 3.0 mph 3.0 mph 93% 0.00 in 0 W/m2
06:48 33.1 °F 31.3 °F 29.21 in WSW 2.0 mph 6.0 mph 93% 0.00 in 0 W/m2
06:54 33.2 °F 31.4 °F 29.22 in West 2.0 mph 2.0 mph 93% 0.00 in 5 W/m2
07:00 33.3 °F 31.5 °F 29.22 in West 2.0 mph 3.0 mph 93% 0.00 in 11 W/m2
07:06 33.4 °F 31.6 °F 29.22 in WSW 2.0 mph 3.0 mph 93% 0.00 in 12 W/m2
07:12 33.4 °F 31.6 °F 29.22 in West 2.0 mph 2.0 mph 93% 0.00 in 14 W/m2
07:18 33.5 °F 31.7 °F 29.23 in West 1.0 mph 4.0 mph 93% 0.00 in 18 W/m2
07:24 33.5 °F 31.7 °F 29.23 in West 2.0 mph 4.0 mph 93% 0.00 in 23 W/m2
07:30 33.5 °F 31.7 °F 29.23 in West 2.0 mph 2.0 mph 93% 0.00 in 25 W/m2
07:36 33.6 °F 31.8 °F 29.23 in WSW 2.0 mph 3.0 mph 93% 0.00 in 32 W/m2
07:42 33.7 °F 31.9 °F 29.24 in WSW 2.0 mph 5.0 mph 93% 0.00 in 40 W/m2
07:48 33.9 °F 32.1 °F 29.24 in WSW 2.0 mph 5.0 mph 93% 0.00 in 46 W/m2
07:54 34.0 °F 32.2 °F 29.24 in WSW 2.0 mph 5.0 mph 93% 0.04 in 40 W/m2
08:00 34.0 °F 32.5 °F 29.25 in WNW 2.0 mph 6.0 mph 94% 0.04 in 42 W/m2
08:06 34.1 °F 32.3 °F 29.25 in West 2.0 mph 6.0 mph 93% 0.04 in 46 W/m2
08:12 34.1 °F 32.3 °F 29.25 in WNW 3.0 mph 6.0 mph 93% 0.00 in 44 W/m2
08:18 34.1 °F 32.3 °F 29.25 in West 2.0 mph 6.0 mph 93% 0.00 in 44 W/m2
08:24 34.1 °F 32.3 °F 29.25 in WSW 2.0 mph 4.0 mph 93% 0.05 in 47 W/m2
08:30 34.1 °F 32.3 °F 29.26 in NNW 2.0 mph 3.0 mph 93% 0.05 in 56 W/m2
08:36 34.1 °F 32.3 °F 29.26 in West 3.0 mph 4.0 mph 93% 0.05 in 60 W/m2
08:42 34.2 °F 32.4 °F 29.26 in WSW 3.0 mph 3.0 mph 93% 0.05 in 58 W/m2
08:48 34.3 °F 32.5 °F 29.26 in West 2.0 mph 3.0 mph 93% 0.04 in 62 W/m2
08:54 34.4 °F 32.6 °F 29.27 in WNW 2.0 mph 4.0 mph 93% 0.04 in 53 W/m2
09:00 34.4 °F 32.6 °F 29.27 in WNW 2.0 mph 2.0 mph 93% 0.04 in 49 W/m2
09:06 34.5 °F 32.7 °F 29.27 in West 2.0 mph 4.0 mph 93% 0.00 in 53 W/m2
09:12 34.8 °F 33.0 °F 29.28 in WSW 1.0 mph 4.0 mph 93% 0.00 in 65 W/m2
09:18 35.0 °F 33.2 °F 29.28 in West 2.0 mph 4.0 mph 93% 0.00 in 74 W/m2
09:24 35.2 °F 33.6 °F 29.28 in NW 3.0 mph 3.0 mph 94% 0.00 in 76 W/m2
09:30 35.3 °F 33.5 °F 29.28 in NW 3.0 mph 3.0 mph 93% 0.00 in 72 W/m2
09:36 35.4 °F 33.6 °F 29.29 in NW 3.0 mph 6.0 mph 93% 0.00 in 72 W/m2
09:42 35.4 °F 33.6 °F 29.29 in WNW 3.0 mph 4.0 mph 93% 0.00 in 81 W/m2
09:48 35.6 °F 33.8 °F 29.30 in WNW 3.0 mph 4.0 mph 93% 0.00 in 83 W/m2
09:54 35.7 °F 33.9 °F 29.30 in NW 3.0 mph 3.0 mph 93% 0.00 in 95 W/m2
10:00 35.8 °F 34.0 °F 29.30 in WNW 3.0 mph 3.0 mph 93% 0.00 in 97 W/m2
10:06 35.8 °F 34.0 °F 29.30 in NNW 3.0 mph 6.0 mph 93% 0.00 in 114 W/m2
10:12 35.9 °F 34.1 °F 29.31 in WNW 4.0 mph 5.0 mph 93% 0.00 in 142 W/m2
10:18 36.0 °F 34.2 °F 29.31 in NW 4.0 mph 5.0 mph 93% 0.00 in 169 W/m2
10:24 36.1 °F 34.3 °F 29.31 in WNW 4.0 mph 5.0 mph 93% 0.00 in 171 W/m2
10:30 36.4 °F 34.6 °F 29.32 in WNW 3.0 mph 6.0 mph 93% 0.00 in 135 W/m2
10:36 36.1 °F 34.3 °F 29.32 in WNW 4.0 mph 6.0 mph 93% 0.00 in 114 W/m2
10:42 36.0 °F 34.2 °F 29.32 in WNW 5.0 mph 5.0 mph 93% 0.00 in 149 W/m2
10:48 35.8 °F 33.7 °F 29.33 in NNW 5.0 mph 8.0 mph 92% 0.00 in 153 W/m2
10:54 35.7 °F 33.6 °F 29.33 in WNW 6.0 mph 9.0 mph 92% 0.00 in 130 W/m2
11:00 35.7 °F 33.6 °F 29.33 in NW 5.0 mph 5.0 mph 92% 0.00 in 171 W/m2
11:06 35.8 °F 33.7 °F 29.34 in NW 4.0 mph 5.0 mph 92% 0.00 in 148 W/m2
11:12 35.8 °F 33.7 °F 29.34 in NW 4.0 mph 5.0 mph 92% 0.00 in 141 W/m2
11:18 35.8 °F 33.7 °F 29.35 in WNW 4.0 mph 5.0 mph 92% 0.00 in 162 W/m2
11:24 35.6 °F 33.5 °F 29.35 in West 4.0 mph 5.0 mph 92% 0.00 in 176 W/m2
11:30 35.5 °F 33.4 °F 29.35 in West 5.0 mph 5.0 mph 92% 0.00 in 144 W/m2
11:36 35.6 °F 33.5 °F 29.36 in North 4.0 mph 5.0 mph 92% 0.00 in 156 W/m2
11:42 35.5 °F 33.4 °F 29.36 in WNW 4.0 mph 4.0 mph 92% 0.00 in 130 W/m2
11:48 35.2 °F 32.8 °F 29.36 in WNW 4.0 mph 4.0 mph 91% 0.00 in 127 W/m2
11:54 35.0 °F 32.6 °F 29.36 in WNW 5.0 mph 8.0 mph 91% 0.00 in 130 W/m2
12:00 35.0 °F 32.6 °F 29.37 in NNW 4.0 mph 4.0 mph 91% 0.00 in 120 W/m2
12:06 35.0 °F 32.9 °F 29.38 in WNW 4.0 mph 5.0 mph 92% 0.00 in 132 W/m2
12:12 34.6 °F 32.5 °F 29.38 in WNW 5.0 mph 7.0 mph 92% 0.00 in 135 W/m2
12:18 34.7 °F 32.6 °F 29.38 in WNW 5.0 mph 7.0 mph 92% 0.00 in 139 W/m2
12:24 34.7 °F 32.6 °F 29.38 in WNW 4.0 mph 5.0 mph 92% 0.00 in 171 W/m2
12:30 34.7 °F 32.6 °F 29.39 in WNW 4.0 mph 5.0 mph 92% 0.00 in 181 W/m2
12:36 34.8 °F 32.7 °F 29.39 in WNW 5.0 mph 10.0 mph 92% 0.00 in 190 W/m2
12:42 34.9 °F 32.8 °F 29.39 in WNW 5.0 mph 7.0 mph 92% 0.00 in 199 W/m2
12:48 34.8 °F 32.7 °F 29.40 in NNW 5.0 mph 10.0 mph 92% 0.00 in 188 W/m2
12:54 34.9 °F 32.8 °F 29.40 in NW 5.0 mph 5.0 mph 92% 0.00 in 227 W/m2
13:00 35.2 °F 33.1 °F 29.40 in WNW 4.0 mph 6.0 mph 92% 0.00 in 255 W/m2
13:06 35.1 °F 33.0 °F 29.40 in WNW 5.0 mph 7.0 mph 92% 0.00 in 227 W/m2
13:12 35.1 °F 33.0 °F 29.40 in WNW 5.0 mph 7.0 mph 92% 0.00 in 234 W/m2
13:18 34.9 °F 32.5 °F 29.41 in NW 6.0 mph 7.0 mph 91% 0.00 in 218 W/m2
13:24 35.0 °F 32.6 °F 29.41 in WNW 5.0 mph 6.0 mph 91% 0.00 in 234 W/m2
13:30 35.2 °F 32.8 °F 29.41 in NNW 4.0 mph 5.0 mph 91% 0.00 in 225 W/m2
13:36 35.3 °F 33.2 °F 29.42 in WNW 5.0 mph 5.0 mph 92% 0.00 in 229 W/m2
13:42 35.4 °F 33.3 °F 29.42 in WNW 5.0 mph 6.0 mph 92% 0.00 in 193 W/m2
13:48 35.2 °F 32.8 °F 29.42 in WNW 5.0 mph 9.0 mph 91% 0.00 in 178 W/m2
13:54 35.4 °F 33.0 °F 29.43 in WNW 5.0 mph 5.0 mph 91% 0.00 in 188 W/m2
14:00 35.3 °F 32.9 °F 29.43 in NW 5.0 mph 5.0 mph 91% 0.00 in 163 W/m2
14:06 35.3 °F 32.9 °F 29.43 in WNW 5.0 mph 6.0 mph 91% 0.00 in 163 W/m2
14:12 35.1 °F 32.7 °F 29.43 in West 4.0 mph 5.0 mph 91% 0.04 in 162 W/m2
14:18 35.3 °F 32.9 °F 29.43 in WNW 4.0 mph 5.0 mph 91% 0.04 in 172 W/m2
14:24 35.6 °F 33.5 °F 29.43 in NW 3.0 mph 6.0 mph 92% 0.04 in 218 W/m2
14:30 35.7 °F 33.6 °F 29.44 in NW 4.0 mph 4.0 mph 92% 0.00 in 183 W/m2
14:36 35.7 °F 33.6 °F 29.44 in WNW 3.0 mph 4.0 mph 92% 0.00 in 153 W/m2
14:42 35.5 °F 33.4 °F 29.44 in WNW 4.0 mph 6.0 mph 92% 0.09 in 232 W/m2
14:48 35.7 °F 33.6 °F 29.44 in WNW 5.0 mph 11.0 mph 92% 0.09 in 348 W/m2
14:54 36.1 °F 34.0 °F 29.45 in NW 5.0 mph 9.0 mph 92% 0.05 in 127 W/m2
15:00 35.7 °F 33.6 °F 29.46 in NW 4.0 mph 7.0 mph 92% 0.00 in 330 W/m2
15:06 35.8 °F 33.4 °F 29.46 in NNW 6.0 mph 11.0 mph 91% 0.00 in 221 W/m2
15:12 36.0 °F 33.6 °F 29.46 in NW 7.0 mph 10.0 mph 91% 0.00 in 174 W/m2
15:18 36.3 °F 33.6 °F 29.47 in West 5.0 mph 10.0 mph 90% 0.00 in 192 W/m2
15:24 36.3 °F 33.4 °F 29.47 in NW 5.0 mph 7.0 mph 89% 0.00 in 213 W/m2
15:30 36.4 °F 33.5 °F 29.47 in WNW 6.0 mph 7.0 mph 89% 0.00 in 214 W/m2
15:36 36.3 °F 33.4 °F 29.47 in West 6.0 mph 7.0 mph 89% 0.00 in 230 W/m2
15:42 36.2 °F 33.3 °F 29.48 in WNW 5.0 mph 5.0 mph 89% 0.00 in 200 W/m2
15:48 35.8 °F 33.2 °F 29.48 in WNW 4.0 mph 9.0 mph 90% 0.00 in 169 W/m2
15:54 35.4 °F 32.8 °F 29.48 in NW 6.0 mph 7.0 mph 90% 0.00 in 195 W/m2
16:00 35.5 °F 32.9 °F 29.48 in WNW 5.0 mph 5.0 mph 90% 0.00 in 149 W/m2
16:06 35.4 °F 32.8 °F 29.49 in NNW 4.0 mph 5.0 mph 90% 0.00 in 104 W/m2
16:12 34.4 °F 31.8 °F 29.49 in West 5.0 mph 9.0 mph 90% 0.00 in 148 W/m2
16:18 34.4 °F 32.0 °F 29.49 in NW 5.0 mph 9.0 mph 91% 0.07 in 121 W/m2
16:24 34.5 °F 32.1 °F 29.50 in WNW 5.0 mph 6.0 mph 91% 0.07 in 76 W/m2
16:30 34.7 °F 32.3 °F 29.50 in WNW 4.0 mph 4.0 mph 91% 0.04 in 86 W/m2
16:36 34.8 °F 32.4 °F 29.50 in NW 4.0 mph 7.0 mph 91% 0.00 in 109 W/m2
16:42 35.0 °F 32.6 °F 29.50 in NW 6.0 mph 6.0 mph 91% 0.00 in 77 W/m2
16:48 35.1 °F 32.5 °F 29.51 in NNW 5.0 mph 8.0 mph 90% 0.00 in 69 W/m2
16:54 35.0 °F 32.4 °F 29.52 in WNW 5.0 mph 5.0 mph 90% 0.00 in 51 W/m2
17:00 35.0 °F 31.8 °F 29.52 in WNW 6.0 mph 9.0 mph 88% 0.00 in 44 W/m2
17:06 35.1 °F 31.6 °F 29.52 in NW 5.0 mph 9.0 mph 87% 0.00 in 39 W/m2
17:12 34.9 °F 31.4 °F 29.53 in NW 5.0 mph 5.0 mph 87% 0.00 in 32 W/m2
17:18 34.8 °F 31.3 °F 29.54 in NW 6.0 mph 9.0 mph 87% 0.00 in 28 W/m2
17:24 34.7 °F 31.2 °F 29.54 in NNW 5.0 mph 6.0 mph 87% 0.00 in 25 W/m2
17:30 34.7 °F 31.2 °F 29.54 in NW 4.0 mph 6.0 mph 87% 0.00 in 21 W/m2
17:36 34.8 °F 31.0 °F 29.55 in WNW 5.0 mph 10.0 mph 86% 0.00 in 19 W/m2
17:42 34.9 °F 31.1 °F 29.55 in West 4.0 mph 5.0 mph 86% 0.00 in 19 W/m2
17:48 35.0 °F 30.9 °F 29.55 in North 4.0 mph 6.0 mph 85% 0.00 in 21 W/m2
17:54 35.0 °F 30.7 °F 29.56 in NW 4.0 mph 5.0 mph 84% 0.00 in 19 W/m2
18:00 35.1 °F 30.8 °F 29.56 in NW 5.0 mph 5.0 mph 84% 0.00 in 18 W/m2
18:06 35.1 °F 30.8 °F 29.57 in West 5.0 mph 8.0 mph 84% 0.00 in 12 W/m2
18:12 34.9 °F 30.6 °F 29.57 in WNW 5.0 mph 7.0 mph 84% 0.00 in 21 W/m2
18:18 34.8 °F 30.5 °F 29.57 in NW 5.0 mph 8.0 mph 84% 0.00 in 21 W/m2
18:24 34.7 °F 30.4 °F 29.58 in NW 5.0 mph 11.0 mph 84% 0.00 in 19 W/m2
18:30 34.7 °F 30.4 °F 29.58 in WNW 5.0 mph 5.0 mph 84% 0.00 in 14 W/m2
18:36 34.8 °F 30.2 °F 29.58 in NW 5.0 mph 6.0 mph 83% 0.00 in 14 W/m2
18:42 34.7 °F 30.4 °F 29.58 in WNW 4.0 mph 5.0 mph 84% 0.00 in 11 W/m2
18:48 34.6 °F 30.3 °F 29.59 in WNW 4.0 mph 7.0 mph 84% 0.00 in 9 W/m2
18:54 34.7 °F 30.4 °F 29.60 in WNW 4.0 mph 5.0 mph 84% 0.00 in 9 W/m2
19:00 34.7 °F 30.1 °F 29.60 in NW 4.0 mph 9.0 mph 83% 0.00 in 9 W/m2
19:06 34.8 °F 30.2 °F 29.60 in WNW 4.0 mph 9.0 mph 83% 0.00 in 7 W/m2
19:12 34.8 °F 30.2 °F 29.60 in WNW 3.0 mph 4.0 mph 83% 0.00 in 5 W/m2
19:18 34.9 °F 30.3 °F 29.60 in NW 4.0 mph 8.0 mph 83% 0.00 in 0 W/m2
19:24 35.0 °F 30.4 °F 29.60 in West 4.0 mph 5.0 mph 83% 0.00 in 0 W/m2
19:30 35.1 °F 30.2 °F 29.61 in WNW 5.0 mph 5.0 mph 82% 0.00 in 0 W/m2
19:36 35.2 °F 30.3 °F 29.61 in NW 4.0 mph 5.0 mph 82% 0.00 in 0 W/m2
19:42 35.3 °F 30.4 °F 29.61 in West 3.0 mph 5.0 mph 82% 0.00 in 0 W/m2
19:48 35.3 °F 30.4 °F 29.62 in WNW 4.0 mph 7.0 mph 82% 0.00 in 0 W/m2
19:54 35.3 °F 30.1 °F 29.62 in WNW 4.0 mph 5.0 mph 81% 0.00 in 0 W/m2
20:00 35.3 °F 30.4 °F 29.62 in WNW 4.0 mph 5.0 mph 82% 0.00 in 0 W/m2
20:06 35.2 °F 30.3 °F 29.63 in WNW 3.0 mph 5.0 mph 82% 0.00 in 0 W/m2
20:12 35.1 °F 30.5 °F 29.63 in West 4.0 mph 5.0 mph 83% 0.00 in 0 W/m2
20:18 35.1 °F 30.5 °F 29.63 in WNW 4.0 mph 5.0 mph 83% 0.00 in 0 W/m2
20:24 35.2 °F 30.9 °F 29.64 in WNW 4.0 mph 7.0 mph 84% 0.00 in 0 W/m2
20:30 35.2 °F 30.9 °F 29.65 in WNW 4.0 mph 4.0 mph 84% 0.00 in 0 W/m2
20:36 35.1 °F 30.8 °F 29.65 in WNW 5.0 mph 6.0 mph 84% 0.00 in 0 W/m2
20:42 35.1 °F 30.8 °F 29.65 in NW 4.0 mph 5.0 mph 84% 0.00 in 0 W/m2
20:48 35.1 °F 30.8 °F 29.65 in West 4.0 mph 8.0 mph 84% 0.00 in 0 W/m2
20:54 35.1 °F 30.8 °F 29.65 in West 5.0 mph 8.0 mph 84% 0.00 in 0 W/m2
21:00 35.2 °F 30.9 °F 29.66 in NW 4.0 mph 8.0 mph 84% 0.00 in 0 W/m2
21:06 35.2 °F 30.9 °F 29.66 in West 4.0 mph 8.0 mph 84% 0.00 in 0 W/m2
21:12 35.3 °F 30.9 °F 29.66 in WNW 4.0 mph 4.0 mph 84% 0.00 in 0 W/m2
21:18 35.4 °F 30.8 °F 29.66 in WNW 4.0 mph 5.0 mph 83% 0.00 in 0 W/m2
21:24 35.4 °F 30.8 °F 29.66 in West 4.0 mph 5.0 mph 83% 0.00 in 0 W/m2
21:30 35.5 °F 30.8 °F 29.66 in West 4.0 mph 8.0 mph 83% 0.00 in 0 W/m2
21:36 35.5 °F 30.8 °F 29.67 in NW 4.0 mph 8.0 mph 83% 0.00 in 0 W/m2
21:42 35.7 °F 30.7 °F 29.67 in WNW 4.0 mph 4.0 mph 82% 0.00 in 0 W/m2
21:48 35.8 °F 30.8 °F 29.67 in WNW 4.0 mph 6.0 mph 82% 0.00 in 0 W/m2
21:54 35.9 °F 30.6 °F 29.67 in WNW 4.0 mph 6.0 mph 81% 0.00 in 0 W/m2
22:00 35.9 °F 30.6 °F 29.67 in WNW 4.0 mph 4.0 mph 81% 0.00 in 0 W/m2
22:06 36.0 °F 30.4 °F 29.67 in WNW 3.0 mph 6.0 mph 80% 0.00 in 0 W/m2
22:12 36.1 °F 30.2 °F 29.67 in WNW 5.0 mph 7.0 mph 79% 0.00 in 0 W/m2
22:18 36.1 °F 30.2 °F 29.68 in NW 4.0 mph 7.0 mph 79% 0.00 in 0 W/m2
22:24 36.2 °F 29.7 °F 29.68 in WNW 4.0 mph 8.0 mph 77% 0.00 in 0 W/m2
22:30 36.2 °F 30.0 °F 29.68 in WNW 4.0 mph 5.0 mph 78% 0.00 in 0 W/m2
22:36 36.2 °F 30.0 °F 29.68 in WNW 3.0 mph 5.0 mph 78% 0.00 in 0 W/m2
22:42 36.2 °F 29.7 °F 29.68 in WNW 4.0 mph 6.0 mph 77% 0.00 in 0 W/m2
22:48 36.2 °F 29.4 °F 29.68 in WNW 4.0 mph 10.0 mph 76% 0.00 in 0 W/m2
22:54 36.3 °F 29.1 °F 29.68 in WNW 4.0 mph 6.0 mph 75% 0.00 in 0 W/m2
23:00 36.4 °F 28.9 °F 29.68 in WSW 4.0 mph 4.0 mph 74% 0.00 in 0 W/m2
23:06 36.4 °F 28.9 °F 29.68 in WNW 4.0 mph 6.0 mph 74% 0.00 in 0 W/m2
23:12 36.3 °F 28.8 °F 29.69 in WNW 3.0 mph 3.0 mph 74% 0.00 in 0 W/m2
23:18 36.4 °F 28.6 °F 29.68 in WNW 4.0 mph 6.0 mph 73% 0.00 in 0 W/m2
23:24 36.4 °F 28.2 °F 29.69 in West 5.0 mph 8.0 mph 72% 0.00 in 0 W/m2
23:30 36.4 °F 27.9 °F 29.69 in WNW 5.0 mph 5.0 mph 71% 0.00 in 0 W/m2
23:36 36.5 °F 27.3 °F 29.69 in WNW 5.0 mph 8.0 mph 69% 0.00 in 0 W/m2
23:42 36.4 °F 27.5 °F 29.69 in WNW 4.0 mph 5.0 mph 70% 0.00 in 0 W/m2
23:48 36.4 °F 27.2 °F 29.69 in WNW 4.0 mph 9.0 mph 69% 0.00 in 0 W/m2
23:54 36.4 °F 27.2 °F 29.69 in WNW 5.0 mph 5.0 mph 69% 0.00 in 0 W/m2
Country Meadow, Clay, NY, USA
Compliments of Weather Underground - 2 mb